Time;durP1;ratioP1;P1;durP2;ratioP2;P2;SDS_P1;SDS_P2;PMS_P1;PMS_P2;Temp;Humidity;BMP_temperature;BMP_pressure;BME280_temperature;BME280_humidity;BME280_pressure;Samples;Min_cycle;Max_cycle;Signal;HPM_P1;HPM_P2
2022/07/11 00:01:08;;;;;;;1.75;1.08;;;19.90;61.50;;;;;;5055745;28;20557;-77
2022/07/11 00:03:35;;;;;;;1.33;0.98;;;19.90;61.50;;;;;;5070184;28;20055;-76
2022/07/11 00:06:02;;;;;;;2.08;1.10;;;19.90;64.50;;;;;;5070494;28;20048;-76
2022/07/11 00:08:30;;;;;;;1.23;1.10;;;19.90;62.10;;;;;;5064447;28;20458;-76
2022/07/11 00:10:57;;;;;;;1.00;0.90;;;19.80;64.30;;;;;;5050190;28;20056;-77
2022/07/11 00:13:24;;;;;;;1.52;1.13;;;19.90;61.50;;;;;;5050110;28;20132;-76
2022/07/11 00:15:50;;;;;;;1.13;1.02;;;19.80;64.50;;;;;;5050449;28;20055;-77
2022/07/11 00:18:17;;;;;;;1.05;1.00;;;19.90;61.50;;;;;;5050187;28;20048;-76
2022/07/11 00:20:44;;;;;;;1.45;0.90;;;19.90;64.00;;;;;;5049851;28;20135;-77
2022/07/11 00:23:10;;;;;;;1.13;1.00;;;19.90;61.50;;;;;;5053827;28;20653;-78
2022/07/11 00:25:38;;;;;;;1.20;1.05;;;19.90;61.50;;;;;;5052465;28;20057;-77
2022/07/11 00:28:05;;;;;;;0.80;0.80;;;19.90;61.50;;;;;;5050070;28;20252;-76
2022/07/11 00:30:32;;;;;;;0.80;0.80;;;19.70;63.90;;;;;;5050069;28;20057;-76
2022/07/11 00:32:59;;;;;;;3.03;1.10;;;19.90;61.50;;;;;;5050994;28;20136;-77
2022/07/11 00:35:25;;;;;;;1.75;1.00;;;19.90;64.00;;;;;;5050012;28;20047;-77
2022/07/11 00:37:52;;;;;;;0.90;0.80;;;20.80;64.20;;;;;;5059129;28;20076;-76
2022/07/11 00:40:19;;;;;;;0.90;0.80;;;19.90;64.80;;;;;;5070798;28;20052;-76
2022/07/11 00:42:47;;;;;;;1.00;0.90;;;19.90;61.50;;;;;;5069836;28;20049;-78
2022/07/11 00:45:14;;;;;;;1.88;1.00;;;20.60;64.40;;;;;;5070671;28;20048;-76
2022/07/11 00:47:41;;;;;;;1.73;1.00;;;19.90;61.60;;;;;;5069682;28;20132;-77
2022/07/11 00:50:08;;;;;;;1.23;0.80;;;19.90;61.60;;;;;;5055208;28;20056;-77
2022/07/11 00:52:35;;;;;;;0.80;0.80;;;19.90;61.60;;;;;;5068590;28;20497;-76
2022/07/11 00:55:02;;;;;;;1.27;0.93;;;19.90;64.30;;;;;;5069465;28;20139;-77
2022/07/11 00:57:29;;;;;;;1.20;1.00;;;19.90;61.60;;;;;;5069022;28;20052;-76
2022/07/11 00:59:58;;;;;;;1.48;0.90;;;19.90;61.60;;;;;;5069409;28;20048;-77
2022/07/11 01:02:25;;;;;;;0.88;0.88;;;19.90;61.60;;;;;;5068946;28;20063;-76
2022/07/11 01:04:52;;;;;;;1.10;1.00;;;19.90;64.80;;;;;;5068272;28;20078;-76
2022/07/11 01:07:18;;;;;;;1.10;1.00;;;19.80;61.50;;;;;;5069196;28;20587;-77
2022/07/11 01:09:45;;;;;;;1.00;0.90;;;20.30;63.20;;;;;;5069017;28;20053;-76
2022/07/11 01:12:12;;;;;;;3.00;1.05;;;19.90;61.60;;;;;;5069355;28;20106;-75
2022/07/11 01:14:39;;;;;;;1.10;1.00;;;19.80;61.60;;;;;;5068812;28;20131;-75
2022/07/11 01:17:07;;;;;;;0.93;0.80;;;19.70;64.10;;;;;;5069231;28;20052;-75
2022/07/11 01:19:34;;;;;;;1.75;0.90;;;19.90;62.70;;;;;;5050744;28;20084;-75
2022/07/11 01:22:01;;;;;;;0.80;0.80;;;19.80;61.60;;;;;;5048431;28;20545;-75
2022/07/11 01:24:29;;;;;;;1.25;0.98;;;19.80;61.60;;;;;;5048556;28;20144;-75
2022/07/11 01:26:56;;;;;;;0.85;0.85;;;19.80;61.60;;;;;;5049030;28;20057;-75
2022/07/11 01:29:23;;;;;;;0.85;0.85;;;19.80;61.60;;;;;;5049961;28;20044;-75
2022/07/11 01:31:50;;;;;;;1.10;1.00;;;19.80;61.60;;;;;;5049311;28;20065;-75
2022/07/11 01:34:17;;;;;;;1.25;0.98;;;19.80;61.60;;;;;;5048209;28;20139;-75
2022/07/11 01:36:43;;;;;;;0.90;0.85;;;19.80;61.60;;;;;;5048473;28;20049;-75
2022/07/11 01:39:10;;;;;;;1.15;0.90;;;19.80;61.60;;;;;;5048741;28;20670;-75
2022/07/11 01:41:38;;;;;;;1.23;0.90;;;19.80;61.60;;;;;;5048308;28;20131;-75
2022/07/11 01:44:05;;;;;;;1.15;0.98;;;19.80;61.60;;;;;;5048441;28;20132;-75
2022/07/11 01:46:32;;;;;;;0.98;0.88;;;19.80;61.60;;;;;;5051034;28;20080;-75
2022/07/11 01:48:59;;;;;;;1.50;0.80;;;19.80;61.60;;;;;;5049065;28;20136;-75
2022/07/11 01:51:25;;;;;;;0.80;0.80;;;19.80;61.60;;;;;;5058260;28;20076;-75
2022/07/11 01:53:54;;;;;;;0.90;0.90;;;19.80;61.60;;;;;;5068306;28;20136;-75
2022/07/11 01:56:21;;;;;;;1.08;0.90;;;19.70;64.00;;;;;;5052265;28;20057;-75
2022/07/11 01:58:49;;;;;;;0.70;0.70;;;19.80;64.50;;;;;;5068426;28;20390;-75
2022/07/11 02:01:16;;;;;;;1.10;0.90;;;19.90;64.70;;;;;;5067731;28;20135;-75
2022/07/11 02:03:42;;;;;;;1.35;0.93;;;19.80;61.70;;;;;;5067805;28;20559;-75
2022/07/11 02:06:09;;;;;;;1.05;0.95;;;20.00;61.80;;;;;;5068024;28;20144;-75
2022/07/11 02:08:36;;;;;;;1.17;0.77;;;19.80;62.20;;;;;;5068040;28;20147;-75
2022/07/11 02:11:03;;;;;;;1.15;0.90;;;19.70;64.30;;;;;;5067644;28;20052;-75
2022/07/11 02:13:30;;;;;;;0.90;0.90;;;19.80;64.70;;;;;;5067440;28;20079;-75
2022/07/11 02:15:58;;;;;;;1.13;0.90;;;19.70;61.60;;;;;;5061262;28;20144;-75
2022/07/11 02:18:25;;;;;;;0.75;0.70;;;19.80;61.70;;;;;;5047987;28;20139;-75
2022/07/11 02:20:51;;;;;;;1.10;0.80;;;19.70;61.60;;;;;;5047673;28;20131;-75
2022/07/11 02:23:18;;;;;;;1.52;0.95;;;20.40;64.30;;;;;;5047721;28;20132;-75
2022/07/11 02:25:45;;;;;;;0.80;0.80;;;19.70;64.10;;;;;;5047631;28;20102;-75
2022/07/11 02:28:12;;;;;;;1.52;1.00;;;19.70;61.60;;;;;;5047971;28;20055;-75
2022/07/11 02:30:39;;;;;;;1.10;1.00;;;20.90;65.40;;;;;;5058516;28;20147;-75
2022/07/11 02:33:08;;;;;;;0.80;0.80;;;19.70;61.70;;;;;;5067699;28;20059;-75
2022/07/11 02:35:35;;;;;;;0.88;0.80;;;19.70;61.60;;;;;;5067724;28;20072;-75
2022/07/11 02:38:02;;;;;;;0.82;0.82;;;19.80;64.00;;;;;;5067675;28;20141;-75
2022/07/11 02:40:28;;;;;;;1.00;0.90;;;19.60;61.60;;;;;;5067458;28;20056;-75
2022/07/11 02:42:55;;;;;;;1.00;0.88;;;19.70;61.70;;;;;;5067451;28;20151;-75
2022/07/11 02:45:22;;;;;;;1.10;1.00;;;19.50;64.10;;;;;;5056606;28;20049;-74
2022/07/11 02:47:49;;;;;;;1.10;0.93;;;19.70;61.70;;;;;;5058226;28;20136;-74
2022/07/11 02:50:17;;;;;;;0.98;0.82;;;19.80;61.70;;;;;;5067640;28;20632;-75
2022/07/11 02:52:44;;;;;;;0.70;0.70;;;19.60;61.60;;;;;;5067658;28;20562;-75
2022/07/11 02:55:11;;;;;;;0.80;0.80;;;19.80;61.70;;;;;;5067498;28;20059;-75
2022/07/11 02:57:39;;;;;;;1.95;0.90;;;20.80;64.50;;;;;;5067561;28;20077;-74
2022/07/11 03:00:07;;;;;;;1.00;0.88;;;20.00;65.00;;;;;;5052047;28;20064;-75
2022/07/11 03:02:34;;;;;;;0.80;0.80;;;19.80;61.70;;;;;;5064812;28;20067;-75
2022/07/11 03:05:00;;;;;;;1.08;0.90;;;19.80;64.20;;;;;;5067097;28;20123;-74
2022/07/11 03:07:28;;;;;;;0.95;0.82;;;19.80;61.60;;;;;;5067826;28;20139;-74
2022/07/11 03:09:55;;;;;;;1.05;0.90;;;19.90;61.70;;;;;;5067292;28;20150;-74
2022/07/11 03:12:22;;;;;;;1.90;1.00;;;19.80;61.80;;;;;;5067663;28;20113;-75
2022/07/11 03:14:49;;;;;;;1.13;1.00;;;19.80;61.80;;;;;;5051556;28;20049;-74
2022/07/11 03:17:16;;;;;;;3.92;1.02;;;19.90;61.90;;;;;;5047431;28;20135;-74
2022/07/11 03:19:42;;;;;;;1.20;0.80;;;19.90;61.90;;;;;;5047592;28;20053;-74
2022/07/11 03:22:09;;;;;;;2.80;0.90;;;19.80;64.10;;;;;;5047439;28;20063;-74
2022/07/11 03:24:37;;;;;;;2.35;1.08;;;19.90;61.90;;;;;;5046917;28;20133;-74
2022/07/11 03:27:05;;;;;;;5.00;0.90;;;19.90;61.90;;;;;;5047077;28;20060;-74
2022/07/11 03:29:32;;;;;;;2.97;1.00;;;19.90;61.80;;;;;;5066873;28;20084;-74
2022/07/11 03:31:58;;;;;;;2.05;1.02;;;20.00;64.70;;;;;;5067052;28;20057;-74
2022/07/11 03:34:25;;;;;;;0.85;0.77;;;20.00;62.20;;;;;;5067236;28;20059;-74
2022/07/11 03:36:52;;;;;;;1.02;0.90;;;20.20;62.10;;;;;;5067285;28;20056;-74
2022/07/11 03:39:18;;;;;;;1.17;0.70;;;20.00;62.00;;;;;;5067304;28;20056;-74
2022/07/11 03:41:46;;;;;;;3.83;1.25;;;20.00;61.90;;;;;;5067426;28;20063;-74
2022/07/11 03:44:13;;;;;;;1.38;0.82;;;20.00;61.90;;;;;;5055067;28;20139;-74
2022/07/11 03:46:40;;;;;;;3.88;0.85;;;20.00;61.90;;;;;;5060986;28;20065;-74
2022/07/11 03:49:07;;;;;;;1.50;0.90;;;19.90;61.80;;;;;;5060213;28;20163;-74
2022/07/11 03:51:33;;;;;;;3.40;0.80;;;19.90;61.90;;;;;;5061203;28;20501;-74
2022/07/11 03:54:01;;;;;;;2.22;0.93;;;19.90;62.00;;;;;;5061361;28;20135;-74
2022/07/11 03:56:27;;;;;;;1.73;1.00;;;19.80;61.90;;;;;;5061715;28;20056;-74
2022/07/11 03:58:55;;;;;;;3.28;1.00;;;19.80;61.90;;;;;;5061598;28;20135;-74
2022/07/11 04:01:22;;;;;;;1.23;0.90;;;19.80;61.90;;;;;;5057345;28;20138;-74
2022/07/11 04:03:49;;;;;;;1.05;0.88;;;19.80;62.00;;;;;;5059742;28;20079;-74
2022/07/11 04:06:15;;;;;;;1.08;0.98;;;19.80;62.00;;;;;;5061060;28;20045;-74
2022/07/11 04:08:43;;;;;;;1.23;0.98;;;19.80;62.00;;;;;;5061839;28;20432;-74
2022/07/11 04:11:10;;;;;;;0.80;0.80;;;19.90;65.00;;;;;;5059740;28;20131;-74
2022/07/11 04:13:36;;;;;;;1.05;0.95;;;19.80;62.10;;;;;;5060996;28;20048;-74
2022/07/11 04:16:05;;;;;;;0.95;0.85;;;19.70;62.00;;;;;;5060683;28;20128;-74
2022/07/11 04:18:32;;;;;;;1.92;0.90;;;19.80;62.10;;;;;;5051400;28;20059;-74
2022/07/11 04:20:59;;;;;;;1.23;1.13;;;19.80;65.30;;;;;;5050432;28;20045;-74
2022/07/11 04:23:26;;;;;;;2.20;0.80;;;19.20;64.60;;;;;;5050011;28;20136;-74
2022/07/11 04:25:52;;;;;;;1.58;1.10;;;19.90;64.50;;;;;;5057879;28;20120;-74
2022/07/11 04:28:19;;;;;;;1.48;1.00;;;19.80;62.20;;;;;;5070191;28;20063;-74
2022/07/11 04:30:46;;;;;;;1.17;0.90;;;19.80;62.10;;;;;;5070078;28;20501;-74
2022/07/11 04:33:14;;;;;;;1.50;0.88;;;18.60;64.20;;;;;;5069725;28;20052;-74
2022/07/11 04:35:42;;;;;;;0.90;0.90;;;19.70;62.10;;;;;;5070050;28;20123;-74
2022/07/11 04:38:09;;;;;;;0.80;0.75;;;19.70;62.10;;;;;;5069778;28;20394;-74
2022/07/11 04:40:35;;;;;;;1.08;0.98;;;19.70;62.10;;;;;;5068404;28;20738;-74
2022/07/11 04:43:02;;;;;;;1.02;0.90;;;19.70;62.00;;;;;;5069309;28;20127;-74
2022/07/11 04:45:29;;;;;;;1.20;0.80;;;19.70;62.00;;;;;;5069566;28;20054;-74
2022/07/11 04:47:56;;;;;;;1.55;0.90;;;19.70;62.10;;;;;;5070979;28;20598;-74
2022/07/11 04:50:24;;;;;;;2.53;0.90;;;19.70;62.00;;;;;;5069620;28;20203;-74
2022/07/11 04:52:51;;;;;;;0.95;0.88;;;19.70;62.00;;;;;;5069459;28;20545;-74
2022/07/11 04:55:18;;;;;;;1.05;0.85;;;19.50;64.20;;;;;;5040184;28;20098;-74
2022/07/11 04:57:44;;;;;;;1.83;1.00;;;19.70;62.00;;;;;;5048481;28;20055;-74
2022/07/11 05:00:12;;;;;;;3.28;1.00;;;19.70;62.00;;;;;;5049508;28;20483;-74
2022/07/11 05:02:39;;;;;;;1.17;1.00;;;19.70;62.00;;;;;;5066885;28;20052;-74
2022/07/11 05:05:06;;;;;;;0.98;0.90;;;19.70;62.00;;;;;;5069241;28;20047;-74
2022/07/11 05:07:37;;;;;;;0.80;0.80;;;19.80;65.10;;;;;;5069218;28;20053;-74
2022/07/11 05:10:05;;;;;;;0.82;0.80;;;19.70;62.00;;;;;;5056375;28;20110;-75
2022/07/11 05:12:31;;;;;;;0.80;0.80;;;19.70;62.00;;;;;;5049270;28;20139;-74
2022/07/11 05:14:59;;;;;;;2.15;0.85;;;19.70;62.00;;;;;;5048935;28;20052;-74
2022/07/11 05:17:26;;;;;;;0.80;0.80;;;19.70;62.00;;;;;;5048813;28;20053;-74
2022/07/11 05:19:52;;;;;;;0.90;0.90;;;19.70;62.00;;;;;;5049207;28;20063;-74
2022/07/11 05:22:19;;;;;;;1.10;0.90;;;19.70;62.00;;;;;;5049208;28;20053;-74
2022/07/11 05:24:48;;;;;;;1.38;0.80;;;19.70;61.90;;;;;;5065824;28;20139;-74
2022/07/11 05:27:15;;;;;;;1.40;0.90;;;19.70;61.90;;;;;;5068877;28;20585;-75
2022/07/11 05:29:41;;;;;;;0.80;0.80;;;19.70;62.00;;;;;;5068443;28;20059;-74
2022/07/11 05:32:09;;;;;;;2.08;0.70;;;19.30;64.20;;;;;;5068835;28;20084;-74
2022/07/11 05:34:35;;;;;;;1.45;1.00;;;19.70;61.90;;;;;;5068549;28;20163;-74
2022/07/11 05:37:02;;;;;;;0.90;0.88;;;19.70;61.90;;;;;;5068838;28;20131;-74
2022/07/11 05:39:29;;;;;;;0.90;0.90;;;;;;;;;;5051368;28;20087;-74
2022/07/11 05:41:57;;;;;;;0.70;0.70;;;19.70;61.40;;;;;;5048573;28;20075;-74
2022/07/11 05:44:24;;;;;;;0.90;0.90;;;19.70;61.90;;;;;;5048614;28;20087;-74
2022/07/11 05:46:50;;;;;;;1.05;0.80;;;19.70;61.80;;;;;;5048426;28;20501;-73
2022/07/11 05:49:17;;;;;;;1.02;0.90;;;19.70;61.80;;;;;;5048518;28;20064;-74
2022/07/11 05:51:45;;;;;;;1.00;0.90;;;19.70;61.80;;;;;;5054107;28;20123;-74
2022/07/11 05:54:12;;;;;;;0.80;0.80;;;20.10;64.70;;;;;;5057241;28;20128;-74
2022/07/11 05:56:39;;;;;;;0.65;0.65;;;19.70;61.80;;;;;;5057222;28;20048;-74
2022/07/11 05:59:07;;;;;;;0.80;0.80;;;20.10;64.60;;;;;;5062672;28;20082;-74
2022/07/11 06:01:33;;;;;;;0.80;0.80;;;19.70;61.70;;;;;;5067498;28;20060;-75
2022/07/11 06:04:00;;;;;;;1.15;0.80;;;19.70;64.40;;;;;;5067949;28;20545;-74
2022/07/11 06:06:27;;;;;;;0.70;0.70;;;20.20;62.00;;;;;;5067251;28;20481;-75
2022/07/11 06:08:54;;;;;;;0.75;0.75;;;19.80;64.80;;;;;;5047832;28;20181;-75
2022/07/11 06:11:21;;;;;;;0.68;0.68;;;19.80;61.70;;;;;;5048265;28;20052;-74
2022/07/11 06:13:49;;;;;;;0.80;0.77;;;19.10;64.20;;;;;;5047725;28;20057;-75
2022/07/11 06:16:17;;;;;;;1.95;0.98;;;19.70;64.60;;;;;;5048242;28;20136;-75
2022/07/11 06:18:44;;;;;;;0.70;0.70;;;19.70;61.60;;;;;;5048091;28;20068;-74
2022/07/11 06:21:11;;;;;;;0.80;0.80;;;19.10;64.10;;;;;;5053561;28;20548;-74
2022/07/11 06:23:37;;;;;;;0.70;0.70;;;19.80;61.60;;;;;;5067875;28;20052;-74
2022/07/11 06:26:04;;;;;;;0.82;0.82;;;19.80;61.60;;;;;;5067657;28;20596;-75
2022/07/11 06:28:31;;;;;;;0.85;0.85;;;19.80;62.20;;;;;;5067715;28;20143;-74
2022/07/11 06:30:58;;;;;;;1.15;0.80;;;19.70;64.00;;;;;;5068784;28;20052;-74
2022/07/11 06:33:26;;;;;;;0.75;0.70;;;19.80;61.60;;;;;;5059888;28;20127;-74
2022/07/11 06:35:53;;;;;;;0.73;0.70;;;19.90;61.70;;;;;;5053443;28;20124;-75
2022/07/11 06:38:20;;;;;;;0.63;0.63;;;19.90;61.60;;;;;;5052037;28;20491;-75
2022/07/11 06:40:47;;;;;;;1.13;0.80;;;19.90;61.60;;;;;;5068916;28;20048;-75
2022/07/11 06:43:14;;;;;;;0.88;0.77;;;19.90;61.60;;;;;;5068803;28;20090;-74
2022/07/11 06:45:40;;;;;;;3.03;0.90;;;20.00;64.60;;;;;;5061313;28;20044;-75
2022/07/11 06:48:07;;;;;;;1.80;0.70;;;19.80;61.70;;;;;;5061462;28;20076;-74
2022/07/11 06:50:36;;;;;;;0.85;0.70;;;20.00;64.50;;;;;;5061876;28;20135;-74
2022/07/11 06:53:03;;;;;;;0.80;0.80;;;19.90;61.60;;;;;;5056801;28;20051;-75
2022/07/11 06:55:30;;;;;;;0.80;0.80;;;20.00;61.90;;;;;;5058515;28;20053;-75
2022/07/11 06:57:57;;;;;;;0.80;0.80;;;20.00;61.60;;;;;;5057612;28;20167;-75
2022/07/11 07:00:24;;;;;;;0.80;0.77;;;20.00;61.70;;;;;;5056734;28;20131;-75
2022/07/11 07:02:50;;;;;;;0.80;0.80;;;19.50;63.80;;;;;;5055107;28;20061;-75
2022/07/11 07:05:17;;;;;;;1.00;0.75;;;20.50;64.60;;;;;;5050015;28;20537;-75
2022/07/11 07:07:45;;;;;;;2.53;0.82;;;20.00;61.70;;;;;;5057067;28;20092;-75
2022/07/11 07:10:12;;;;;;;2.65;0.80;;;20.10;61.70;;;;;;5058054;28;20163;-75
2022/07/11 07:12:39;;;;;;;2.92;1.02;;;20.10;61.70;;;;;;5049875;28;20128;-75
2022/07/11 07:15:06;;;;;;;0.75;0.70;;;20.10;61.70;;;;;;5056581;28;20064;-75
2022/07/11 07:17:33;;;;;;;0.80;0.80;;;20.30;64.40;;;;;;5058332;28;20045;-77
2022/07/11 07:20:02;;;;;;;0.82;0.70;;;20.20;64.50;;;;;;5057487;28;20053;-77
2022/07/11 07:22:30;;;;;;;0.90;0.73;;;20.30;61.60;;;;;;5064538;28;20072;-77
2022/07/11 07:24:58;;;;;;;2.75;0.82;;;20.30;61.40;;;;;;5061983;28;20542;-77
2022/07/11 07:27:25;;;;;;;0.98;0.90;;;20.30;61.40;;;;;;5051183;28;20131;-76
2022/07/11 07:29:52;;;;;;;0.82;0.70;;;20.30;61.30;;;;;;5065589;28;20394;-76
2022/07/11 07:32:18;;;;;;;2.30;1.00;;;20.30;61.40;;;;;;5062758;28;20548;-76
2022/07/11 07:34:45;;;;;;;1.88;0.80;;;20.30;61.50;;;;;;5064666;28;20051;-77
2022/07/11 07:37:12;;;;;;;1.20;0.88;;;20.40;64.20;;;;;;5051201;28;20132;-77
2022/07/11 07:39:39;;;;;;;0.70;0.68;;;20.40;62.60;;;;;;5056268;28;20156;-77
2022/07/11 07:42:07;;;;;;;1.30;0.70;;;20.30;61.60;;;;;;5060470;28;20060;-77
2022/07/11 07:44:34;;;;;;;5.10;0.98;;;20.30;61.60;;;;;;5051175;28;20064;-77
2022/07/11 07:47:01;;;;;;;4.15;0.80;;;20.30;61.50;;;;;;5060952;28;20063;-77
2022/07/11 07:49:28;;;;;;;3.08;1.30;;;20.30;61.60;;;;;;5059555;28;20153;-77
2022/07/11 07:51:55;;;;;;;2.22;0.90;;;20.40;61.50;;;;;;5059382;28;20053;-76
2022/07/11 07:54:21;;;;;;;0.90;0.70;;;20.30;61.50;;;;;;5060870;28;20048;-76
2022/07/11 07:56:48;;;;;;;2.35;0.93;;;20.30;61.60;;;;;;5056798;28;20610;-76
2022/07/11 07:59:16;;;;;;;1.05;0.90;;;20.30;61.60;;;;;;5067648;28;20053;-76
2022/07/11 08:01:45;;;;;;;1.20;0.70;;;20.30;61.60;;;;;;5069578;28;20519;-76
2022/07/11 08:04:12;;;;;;;1.75;0.93;;;19.20;64.20;;;;;;5059836;28;20057;-76
2022/07/11 08:06:39;;;;;;;4.68;1.02;;;20.30;61.80;;;;;;5067602;28;20044;-74
2022/07/11 08:09:06;;;;;;;1.38;0.70;;;20.30;61.90;;;;;;5059331;28;20152;-75
2022/07/11 08:11:34;;;;;;;1.30;0.88;;;20.30;61.90;;;;;;5064369;28;20131;-75
2022/07/11 08:14:01;;;;;;;1.15;0.70;;;20.30;61.90;;;;;;5059391;28;20135;-75
2022/07/11 08:16:29;;;;;;;0.80;0.80;;;20.30;61.90;;;;;;5057176;28;20140;-75
2022/07/11 08:18:56;;;;;;;0.88;0.73;;;20.30;61.90;;;;;;5060541;28;20807;-75
2022/07/11 08:21:23;;;;;;;2.47;0.77;;;20.30;62.00;;;;;;5058671;28;20412;-75
2022/07/11 08:23:50;;;;;;;2.60;0.60;;;20.30;62.00;;;;;;5061083;28;20124;-75
2022/07/11 08:26:16;;;;;;;1.77;0.82;;;20.20;61.90;;;;;;5058285;28;20417;-75
2022/07/11 08:28:43;;;;;;;1.35;1.10;;;21.30;65.00;;;;;;5058989;28;20124;-75
2022/07/11 08:31:10;;;;;;;3.28;0.80;;;20.30;62.00;;;;;;5058195;28;20091;-75
2022/07/11 08:33:38;;;;;;;0.85;0.70;;;20.30;62.10;;;;;;5055592;28;20425;-75
2022/07/11 08:36:06;;;;;;;2.50;0.82;;;19.10;63.80;;;;;;5063771;28;20045;-75
2022/07/11 08:38:33;;;;;;;1.23;0.70;;;20.20;62.10;;;;;;5050447;28;20064;-75
2022/07/11 08:40:59;;;;;;;1.65;1.15;;;20.80;64.40;;;;;;5050098;28;20135;-74
2022/07/11 08:43:28;;;;;;;1.52;0.95;;;20.30;62.20;;;;;;5033040;28;20055;-76
2022/07/11 08:45:55;;;;;;;3.20;1.20;;;20.20;62.10;;;;;;5058760;28;20048;-75
2022/07/11 08:48:22;;;;;;;7.13;1.30;;;20.20;62.10;;;;;;5059867;28;20045;-74
2022/07/11 08:50:50;;;;;;;11.32;1.88;;;20.20;62.10;;;;;;5049917;28;20509;-77
2022/07/11 08:53:17;;;;;;;7.07;1.60;;;20.20;62.00;;;;;;5049549;28;20053;-78
2022/07/11 08:55:44;;;;;;;8.60;2.30;;;20.20;62.10;;;;;;5053176;28;20048;-78
2022/07/11 08:58:11;;;;;;;8.95;2.53;;;20.20;62.20;;;;;;5060933;28;20135;-78
2022/07/11 09:00:38;;;;;;;7.55;2.05;;;20.20;62.20;;;;;;5061292;28;20053;-78
2022/07/11 09:03:05;;;;;;;11.13;2.45;;;20.20;62.30;;;;;;5057044;28;20049;-78
2022/07/11 09:05:32;;;;;;;8.68;1.90;;;20.30;62.40;;;;;;5059212;28;20048;-75
2022/07/11 09:08:00;;;;;;;7.82;1.90;;;20.80;65.30;;;;;;5054583;28;20049;-75
2022/07/11 09:10:27;;;;;;;12.15;2.03;;;20.20;62.30;;;;;;5063448;28;20048;-75
2022/07/11 09:13:01;;;;;;;8.68;2.00;;;20.30;62.40;;;;;;5069269;28;20525;-75
2022/07/11 09:15:35;;;;;;;7.57;2.53;;;20.30;62.30;;;;;;5069474;28;20517;-75
2022/07/11 09:18:02;;;;;;;4.72;1.60;;;20.20;62.30;;;;;;5049493;28;20063;-75
2022/07/11 09:25:19;;;;;;;7.60;2.33;;;20.30;62.20;;;;;;5051004;28;20092;-75
2022/07/11 09:26:06;;;;;;;6.75;2.03;;;20.30;62.20;;;;;;5068972;28;20052;-75
2022/07/11 09:28:33;;;;;;;5.93;1.95;;;20.30;62.20;;;;;;5069081;28;20055;-75
2022/07/11 09:31:00;;;;;;;4.93;1.80;;;20.30;64.90;;;;;;5064547;28;20049;-74
2022/07/11 09:33:27;;;;;;;5.25;1.70;;;20.30;64.60;;;;;;5068653;28;20052;-74
2022/07/11 09:35:54;;;;;;;5.47;1.83;;;20.30;64.60;;;;;;5068655;28;20052;-74
2022/07/11 09:38:23;;;;;;;5.93;2.08;;;20.30;62.20;;;;;;5063229;28;20631;-74
2022/07/11 09:40:50;;;;;;;5.78;2.08;;;20.30;64.70;;;;;;5057875;28;20565;-74
2022/07/11 09:43:25;;;;;;;5.03;1.77;;;20.30;62.30;;;;;;5048629;28;20057;-74
2022/07/11 09:45:51;;;;;;;5.70;1.80;;;20.00;61.60;;;;;;5055599;28;20044;-74
2022/07/11 09:48:18;;;;;;;3.78;1.48;;;19.10;64.30;;;;;;5067221;28;20485;-74
2022/07/11 09:50:56;;;;;;;5.88;1.65;;;20.30;62.50;;;;;;5067822;28;20715;-74
2022/07/11 09:53:24;;;;;;;5.95;1.92;;;20.40;62.60;;;;;;5067629;28;20417;-74
2022/07/11 09:55:50;;;;;;;5.65;1.58;;;20.40;65.10;;;;;;5067894;28;20135;-73
2022/07/11 09:58:17;;;;;;;3.70;1.65;;;20.30;62.50;;;;;;5068142;28;20143;-73
2022/07/11 10:00:45;;;;;;;2.30;1.40;;;20.30;62.40;;;;;;5061965;28;20076;-73
2022/07/11 10:03:12;;;;;;;4.65;1.92;;;20.40;62.40;;;;;;5048440;28;20053;-73
2022/07/11 10:05:39;;;;;;;5.20;2.00;;;20.30;62.90;;;;;;5048307;28;20064;-74
2022/07/11 10:08:06;;;;;;;3.67;1.60;;;20.30;64.70;;;;;;5048050;28;20549;-74
2022/07/11 10:10:34;;;;;;;5.05;1.58;;;20.40;62.40;;;;;;5048113;28;20053;-74
2022/07/11 10:13:02;;;;;;;4.30;1.30;;;20.40;65.60;;;;;;5048253;28;20135;-74
2022/07/11 10:15:30;;;;;;;4.53;1.40;;;20.50;65.70;;;;;;5048615;28;20053;-74
2022/07/11 10:18:01;;;;;;;5.32;1.58;;;20.40;62.80;;;;;;5052821;28;20562;-74
2022/07/11 10:20:30;;;;;;;5.10;1.48;;;20.40;62.70;;;;;;5065667;28;20144;-74
2022/07/11 10:22:59;;;;;;;3.10;1.50;;;20.40;62.50;;;;;;5063310;28;20556;-74
2022/07/11 10:25:30;;;;;;;1.98;1.17;;;20.40;62.30;;;;;;5049024;28;20067;-74
2022/07/11 10:28:20;;;;;;;3.75;1.38;;;20.40;62.00;;;;;;5067927;28;20131;-74
2022/07/11 10:30:48;;;;;;;2.58;1.15;;;20.50;65.10;;;;;;5067854;28;20083;-74
2022/07/11 10:33:15;;;;;;;4.85;1.58;;;20.50;64.10;;;;;;5067891;28;20601;-74
2022/07/11 10:35:43;;;;;;;2.45;1.30;;;20.50;61.70;;;;;;5067811;28;20596;-74
2022/07/11 10:38:09;;;;;;;3.25;1.40;;;20.50;61.60;;;;;;5067983;28;20045;-74
2022/07/11 10:40:41;;;;;;;3.65;1.30;;;20.60;61.60;;;;;;5067810;28;20056;-74
2022/07/11 10:43:08;;;;;;;3.60;1.20;;;20.60;61.50;;;;;;5067385;28;20135;-75
2022/07/11 10:48:29;;;;;;;3.30;1.50;;;20.50;63.10;;;;;;5086100;27;21075;-74
2022/07/11 10:51:05;;;;;;;3.53;1.30;;;20.70;61.40;;;;;;5073829;28;20048;-74
2022/07/11 10:53:34;;;;;;;3.83;1.23;;;20.70;61.20;;;;;;5063038;28;20059;-74
2022/07/11 10:56:06;;;;;;;2.90;1.17;;;20.60;63.80;;;;;;5064707;28;20049;-74
2022/07/11 10:58:33;;;;;;;2.28;1.10;;;20.70;63.70;;;;;;5066060;28;20102;-74
2022/07/11 11:01:09;;;;;;;2.78;1.15;;;20.70;61.10;;;;;;5065438;28;20051;-74
2022/07/11 11:03:37;;;;;;;2.95;1.52;;;20.80;64.10;;;;;;5064516;28;20055;-74
2022/07/11 11:06:04;;;;;;;1.98;1.15;;;20.70;61.10;;;;;;5064931;28;20128;-73
2022/07/11 11:08:44;;;;;;;2.35;1.50;;;20.70;61.10;;;;;;5065080;28;20075;-73
2022/07/11 11:11:37;;;;;;;2.45;1.17;;;20.80;61.10;;;;;;5048123;28;20057;-74
2022/07/11 11:14:21;;;;;;;4.07;1.50;;;20.80;61.30;;;;;;5064673;28;20490;-73
2022/07/11 11:16:48;;;;;;;3.83;1.65;;;21.50;64.40;;;;;;5064200;28;20052;-74
2022/07/11 11:19:54;;;;;;;4.00;1.30;;;20.80;61.10;;;;;;5064617;28;20075;-73
2022/07/11 11:22:21;;;;;;;3.45;1.00;;;20.80;61.00;;;;;;5064484;28;20405;-73
2022/07/11 11:24:49;;;;;;;2.90;1.20;;;19.60;63.00;;;;;;5064740;28;20144;-74
2022/07/11 11:27:21;;;;;;;2.55;1.15;;;20.80;61.00;;;;;;5065615;28;20045;-74
2022/07/11 11:29:48;;;;;;;0.85;0.80;;;20.90;61.10;;;;;;5063376;28;20053;-74
2022/07/11 11:32:15;;;;;;;3.83;1.27;;;20.80;61.00;;;;;;5063492;28;20040;-73
2022/07/11 11:34:42;;;;;;;1.50;0.90;;;20.80;61.10;;;;;;5063976;28;20080;-73
2022/07/11 11:37:10;;;;;;;2.08;1.10;;;20.80;61.10;;;;;;5064269;28;20045;-73
2022/07/11 11:39:39;;;;;;;1.92;0.90;;;20.90;61.20;;;;;;5063862;28;20063;-75
2022/07/11 11:42:11;;;;;;;2.60;1.30;;;20.90;61.20;;;;;;5064051;28;20056;-73
2022/07/11 11:44:49;;;;;;;3.13;1.20;;;20.90;61.20;;;;;;5063797;28;20052;-73
2022/07/11 11:47:15;;;;;;;2.10;1.00;;;20.90;61.20;;;;;;5062563;28;20498;-74
2022/07/11 11:49:43;;;;;;;2.03;0.95;;;20.80;63.80;;;;;;5063442;28;20049;-73
2022/07/11 11:52:12;;;;;;;2.85;1.00;;;20.90;61.20;;;;;;5060995;28;20148;-74
2022/07/11 11:54:39;;;;;;;2.85;0.90;;;20.90;61.10;;;;;;5063183;28;20049;-74
2022/07/11 11:57:07;;;;;;;3.95;1.27;;;20.90;61.20;;;;;;5063562;28;20051;-73
2022/07/11 11:59:34;;;;;;;1.88;0.93;;;20.90;61.80;;;;;;5050854;28;20069;-74
2022/07/11 12:02:01;;;;;;;2.08;0.77;;;20.90;61.20;;;;;;5048850;28;20144;-73
2022/07/11 12:04:31;;;;;;;2.60;0.95;;;21.00;61.20;;;;;;5050806;28;20416;-73
2022/07/11 12:06:58;;;;;;;2.85;0.90;;;20.90;61.10;;;;;;5049790;28;20478;-73
2022/07/11 12:14:53;;;;;;;1.55;0.90;;;20.90;61.10;;;;;;5017649;28;20045;-73
2022/07/11 12:17:24;;;;;;;1.15;0.73;;;20.90;61.10;;;;;;5050122;28;20517;-73
2022/07/11 12:19:51;;;;;;;1.92;0.80;;;20.90;61.00;;;;;;5049760;28;20103;-73
2022/07/11 12:22:18;;;;;;;2.83;0.90;;;20.80;61.10;;;;;;5050151;28;20410;-73
2022/07/11 12:24:49;;;;;;;0.90;0.80;;;20.80;61.10;;;;;;5033299;28;20061;-73
2022/07/11 12:27:18;;;;;;;1.30;0.85;;;20.90;61.10;;;;;;5049521;28;20517;-72
2022/07/11 12:29:49;;;;;;;3.50;0.80;;;20.10;61.40;;;;;;5049747;28;20065;-73
2022/07/11 12:32:16;;;;;;;1.90;0.80;;;20.90;63.50;;;;;;5049626;28;20717;-73
2022/07/11 12:34:44;;;;;;;1.48;0.73;;;20.80;61.10;;;;;;5048944;28;20114;-73
2022/07/11 12:37:13;;;;;;;1.10;0.77;;;20.80;61.10;;;;;;5049078;28;20410;-72
2022/07/11 12:39:41;;;;;;;2.38;0.82;;;20.80;61.20;;;;;;5048594;28;20060;-73
2022/07/11 12:42:23;;;;;;;2.75;0.90;;;20.80;61.20;;;;;;5048620;28;20049;-73
2022/07/11 12:44:58;;;;;;;1.48;0.90;;;20.80;61.20;;;;;;5038732;28;20398;-73
2022/07/11 12:47:25;;;;;;;2.40;0.85;;;20.80;61.30;;;;;;5032340;28;20049;-73
2022/07/11 12:49:52;;;;;;;0.88;0.80;;;20.90;61.30;;;;;;5048736;28;20140;-73
2022/07/11 12:52:19;;;;;;;3.53;1.13;;;20.80;61.20;;;;;;5049364;28;20514;-72
2022/07/11 12:54:46;;;;;;;1.90;1.00;;;20.80;61.20;;;;;;5049091;28;20139;-73
2022/07/11 12:57:16;;;;;;;0.77;0.60;;;20.80;61.10;;;;;;5050788;28;20140;-73
2022/07/11 12:59:44;;;;;;;2.10;0.85;;;20.70;61.70;;;;;;5049435;28;20127;-73
2022/07/11 13:02:12;;;;;;;1.90;1.00;;;20.90;63.90;;;;;;5043628;28;20056;-73